»·PEaware :: N515ZT KSMX-KBFL

N515ZT :: KSMX-KBFL

FLIGHT INFORMATION

Flight Status: Arrived
Operator: Privately registered:
United States
More flights under this callsign
Pilot: Marty P. (27464)
Aircraft: BEECH AIRCRAFT BARON
(BE58)
More flights by this aircraft type
Origin: KSMX Santa Maria Pub/Capt Hancock
United States
Destination: KBFL Meadows
United States
More flights between these airports :: More routes between these airports
Route: +KSMX FLW FASTO KBFL
File this flight plan on PilotEdge
Remarks:
Altitude:
(Current/Filed)
7,500ft
Speed:
(Current/Filed)
200kts
Departed: 13-Jan-20 10:02 AM
Arrived: 13-Jan-20 10:52 AM
Distance/Time
Traveled:
76nm/0:50
Distance/Time
To Go:
Arrived

Flight Plot

Page will automatically refresh every two minutes.

Flight plan parsing failed; only flown route is shown


Map Options




Map Legend


Flown Route
Filed Route
Departure Airport
Arrival Airport
Navaid (VOR, NDB)
Fix

Horizontal Profiles

Position Reports

Time Latitude Longitude Heading Altitude Ground
Speed
13-Jan-20 09:46 34.898504 -120.447779 45 265ft 0kts
13-Jan-20 09:47 34.898504 -120.447779 45 265ft 0kts
13-Jan-20 09:48 34.898504 -120.447779 45 265ft 0kts
13-Jan-20 09:49 34.898346 -120.447976 45 265ft 0kts
13-Jan-20 09:50 34.898112 -120.448261 41 265ft 0kts
13-Jan-20 09:51 34.896951 -120.446145 273 265ft 0kts
13-Jan-20 09:52 34.896951 -120.446145 273 265ft 0kts
13-Jan-20 09:53 34.896951 -120.446145 273 265ft 0kts
13-Jan-20 09:54 34.896951 -120.446145 273 265ft 0kts
13-Jan-20 09:55 34.896951 -120.446145 273 265ft 0kts
13-Jan-20 09:56 34.896951 -120.446145 273 265ft 0kts
13-Jan-20 09:57 34.896976 -120.446649 269 265ft 7kts
13-Jan-20 09:58 34.896033 -120.447245 136 265ft 12kts
13-Jan-20 09:59 34.894274 -120.445204 164 265ft 8kts
13-Jan-20 10:00 34.893429 -120.445212 180 265ft 0kts
13-Jan-20 10:00 34.892777 -120.445682 241 265ft 11kts
13-Jan-20 10:02 34.904279 -120.459895 313 582ft 128kts
13-Jan-20 10:02 34.919402 -120.478621 314 1549ft 131kts
13-Jan-20 10:04 34.939936 -120.462285 90 2653ft 153kts
13-Jan-20 10:05 34.938957 -120.430138 94 3557ft 152kts
13-Jan-20 10:05 34.935774 -120.402587 94 4271ft 152kts
13-Jan-20 10:07 34.933203 -120.364353 75 5201ft 150kts
13-Jan-20 10:07 34.938863 -120.340495 63 5811ft 146kts
13-Jan-20 10:08 34.948402 -120.310543 61 6559ft 146kts
13-Jan-20 10:09 34.958188 -120.280627 61 7323ft 149kts
13-Jan-20 10:10 34.969290 -120.246859 62 7562ft 176kts
13-Jan-20 10:11 34.981612 -120.209015 62 7515ft 191kts
13-Jan-20 10:12 34.993941 -120.171170 62 7497ft 192kts
13-Jan-20 10:13 35.007563 -120.129337 62 7488ft 189kts
13-Jan-20 10:14 35.021003 -120.088041 62 7484ft 188kts
13-Jan-20 10:15 35.032310 -120.053264 62 7481ft 187kts
13-Jan-20 10:16 35.043518 -120.018735 63 7479ft 186kts
13-Jan-20 10:17 35.054953 -119.983464 63 7476ft 185kts
13-Jan-20 10:18 35.066472 -119.947894 62 7477ft 185kts
13-Jan-20 10:19 35.078224 -119.911567 62 7478ft 185kts
13-Jan-20 10:20 35.090196 -119.874509 63 7479ft 185kts
13-Jan-20 10:21 35.098500 -119.835209 71 7475ft 188kts
13-Jan-20 10:22 35.105538 -119.797199 72 7481ft 188kts
13-Jan-20 10:23 35.112836 -119.757263 72 7483ft 188kts
13-Jan-20 10:24 35.119982 -119.717922 72 7488ft 187kts
13-Jan-20 10:25 35.127010 -119.679178 71 7491ft 185kts
13-Jan-20 10:26 35.134001 -119.640572 71 7495ft 183kts
13-Jan-20 10:27 35.141088 -119.601367 71 7499ft 182kts
13-Jan-20 10:28 35.148264 -119.561601 71 7502ft 179kts
13-Jan-20 10:29 35.155631 -119.520697 71 7514ft 177kts
13-Jan-20 10:30 35.163020 -119.479559 71 7511ft 177kts
13-Jan-20 10:31 35.170404 -119.438388 71 7506ft 177kts
13-Jan-20 10:32 35.177294 -119.399932 71 7513ft 177kts
13-Jan-20 10:33 35.184129 -119.361628 71 7511ft 177kts
13-Jan-20 10:34 35.191202 -119.321962 72 7449ft 180kts
13-Jan-20 10:35 35.198279 -119.282119 72 7483ft 177kts
13-Jan-20 10:36 35.204544 -119.246918 72 7499ft 177kts
13-Jan-20 10:37 35.210815 -119.211456 72 7492ft 178kts
13-Jan-20 10:38 35.216851 -119.177350 72 7490ft 177kts
13-Jan-20 10:39 35.223477 -119.140073 71 7491ft 177kts
13-Jan-20 10:40 35.230160 -119.101939 73 7132ft 184kts
13-Jan-20 10:41 35.236927 -119.063345 73 6202ft 181kts
13-Jan-20 10:42 35.243244 -119.027496 75 4986ft 167kts
13-Jan-20 10:43 35.253167 -118.993300 34 3676ft 170kts
13-Jan-20 10:44 35.280281 -118.995502 348 2772ft 163kts
13-Jan-20 10:45 35.307068 -119.004076 347 2219ft 185kts
13-Jan-20 10:46 35.336352 -119.013193 354 2150ft 182kts
13-Jan-20 10:47 35.364888 -119.016298 0 2145ft 183kts
13-Jan-20 10:48 35.393059 -119.018191 359 1569ft 178kts
13-Jan-20 10:49 35.415447 -119.033753 315 987ft 126kts
13-Jan-20 10:50 35.429569 -119.051031 316 633ft 111kts
13-Jan-20 10:51 35.436118 -119.058030 39 510ft 12kts
13-Jan-20 10:52 35.436340 -119.057278 94 510ft 8kts
13-Jan-20 10:53 35.434898 -119.055240 135 510ft 16kts
13-Jan-20 10:54 35.435868 -119.052888 75 510ft 11kts
13-Jan-20 10:55 35.435699 -119.052139 186 510ft 0kts
13-Jan-20 10:56 35.435699 -119.052139 186 510ft 0kts
13-Jan-20 10:57 35.435699 -119.052139 186 510ft 0kts
13-Jan-20 10:58 35.435699 -119.052139 186 510ft 0kts
13-Jan-20 10:59 35.435699 -119.052139 186 510ft 0kts
13-Jan-20 11:00 35.435471 -119.052514 274 510ft 6kts
13-Jan-20 11:01 35.434818 -119.054238 227 510ft 0kts
13-Jan-20 11:02 35.434818 -119.054238 227 510ft 0kts
13-Jan-20 11:03 35.434818 -119.054238 227 510ft 0kts

Navigation Log

Ident Type
Flight plan parsing failed, navigation log unavailable